createdAt,value
2023-05-11T16:56:19.232Z,34.70
2023-05-11T16:58:46.272Z,34.51
2023-05-11T17:01:13.129Z,34.42
2023-05-11T17:03:40.259Z,34.18
2023-05-11T17:06:07.671Z,34.03
2023-05-11T17:08:34.590Z,34.11
2023-05-11T17:11:01.653Z,34.05
2023-05-11T17:13:28.548Z,34.09
2023-05-11T17:15:57.390Z,34.05
2023-05-11T17:18:24.677Z,34.07
2023-05-11T17:20:53.652Z,34.04
2023-05-11T17:23:20.695Z,34.10
2023-05-11T17:25:48.041Z,34.06
2023-05-11T17:28:15.321Z,34.11
2023-05-11T17:33:14.336Z,34.34
2023-05-11T17:35:41.992Z,34.50
2023-05-11T17:38:10.915Z,34.67
2023-05-11T17:40:38.341Z,34.72
2023-05-11T17:43:05.200Z,34.80
2023-05-11T17:45:32.031Z,34.88
2023-05-11T17:47:59.110Z,35.21
2023-05-11T17:50:26.087Z,35.29
2023-05-11T17:52:53.418Z,35.42
2023-05-11T17:55:21.245Z,35.50
2023-05-11T17:57:52.129Z,35.76
2023-05-11T18:00:19.485Z,35.88
2023-05-11T18:02:48.742Z,36.06
2023-05-11T18:05:16.277Z,36.27
2023-05-11T18:07:43.094Z,36.42
2023-05-11T18:10:11.182Z,36.55
2023-05-11T18:12:38.008Z,36.56
2023-05-11T18:15:05.303Z,36.68
2023-05-11T18:17:32.141Z,36.77
2023-05-11T18:19:59.030Z,36.73
2023-05-11T18:22:26.032Z,36.82
2023-05-11T18:24:52.943Z,36.83
2023-05-11T18:27:19.866Z,36.90
2023-05-11T18:29:46.748Z,36.93
2023-05-11T18:32:13.611Z,36.99
2023-05-11T18:34:42.572Z,37.20
2023-05-11T18:37:09.761Z,37.18
2023-05-11T18:39:36.617Z,37.26
2023-05-11T18:42:04.388Z,37.47
2023-05-11T18:44:32.024Z,37.66
2023-05-11T18:46:59.258Z,37.83
2023-05-11T18:49:26.247Z,37.73
2023-05-11T18:51:53.942Z,37.72
2023-05-11T18:54:21.970Z,37.91
2023-05-11T18:56:48.862Z,38.05
2023-05-11T18:59:16.819Z,38.21
2023-05-11T19:01:47.886Z,38.33
2023-05-11T19:04:17.877Z,38.46
2023-05-11T19:06:45.147Z,38.57
2023-05-11T19:09:11.961Z,38.76
2023-05-11T19:11:38.860Z,38.86
2023-05-11T19:14:07.746Z,39.03
2023-05-11T19:16:35.874Z,39.17
2023-05-11T19:19:02.925Z,39.11
2023-05-11T19:21:29.876Z,39.12
2023-05-11T19:23:56.756Z,39.25
2023-05-11T19:26:23.829Z,39.32
2023-05-11T19:28:50.789Z,39.47
2023-05-11T19:31:17.659Z,39.49
2023-05-11T19:33:44.469Z,39.70
2023-05-11T19:36:11.436Z,39.66
2023-05-11T19:38:38.820Z,39.87
2023-05-11T19:41:05.744Z,39.82
2023-05-11T19:43:32.585Z,39.97
2023-05-11T19:46:00.502Z,39.95
2023-05-11T19:48:27.536Z,40.09
2023-05-11T19:50:54.440Z,40.23
2023-05-11T19:53:21.704Z,40.46
2023-05-11T19:55:49.235Z,40.64
2023-05-11T19:58:16.367Z,40.68
2023-05-11T20:00:43.203Z,40.74
2023-05-11T20:03:10.155Z,40.94
2023-05-11T20:05:37.156Z,40.98
2023-05-11T20:08:06.237Z,41.20
2023-05-11T20:10:33.813Z,41.20
2023-05-11T20:13:03.986Z,41.31
2023-05-11T20:15:31.425Z,41.30
2023-05-11T20:17:58.303Z,41.38
2023-05-11T20:20:25.449Z,41.40
2023-05-11T20:22:52.446Z,41.49
2023-05-11T20:25:19.312Z,41.79
2023-05-11T20:27:46.815Z,41.80
2023-05-11T20:30:14.021Z,41.79
2023-05-11T20:34:06.974Z,41.84
2023-05-11T20:35:28.430Z,42.06
2023-05-11T20:37:55.431Z,42.20
2023-05-11T20:40:22.366Z,42.23
2023-05-11T20:42:49.304Z,42.78
2023-05-11T20:45:16.178Z,43.18
2023-05-11T20:47:43.088Z,43.16
2023-05-11T20:50:10.474Z,43.25
2023-05-11T20:52:37.524Z,43.14
2023-05-11T20:55:04.885Z,43.21
2023-05-11T20:57:31.731Z,43.31
2023-05-11T21:02:28.495Z,43.92
2023-05-11T21:05:01.921Z,43.76
2023-05-11T21:07:29.541Z,44.01
2023-05-11T21:09:56.374Z,44.04
2023-05-11T21:12:23.291Z,43.84
2023-05-11T21:14:50.177Z,43.91
2023-05-11T21:17:17.095Z,43.87
2023-05-11T21:19:43.985Z,44.32
2023-05-11T21:22:10.965Z,44.64
2023-05-11T21:24:37.846Z,44.91
2023-05-11T21:27:04.845Z,44.97
2023-05-11T21:29:31.676Z,45.06
2023-05-11T21:31:58.456Z,45.30
2023-05-11T21:34:25.285Z,45.29
2023-05-11T21:36:52.384Z,45.38
2023-05-11T21:39:19.198Z,45.45
2023-05-11T21:41:46.018Z,45.37
2023-05-11T21:44:12.908Z,45.34
2023-05-11T21:46:39.917Z,45.52
2023-05-11T21:49:06.777Z,45.78
2023-05-11T21:51:33.637Z,45.89
2023-05-11T21:54:00.519Z,46.13
2023-05-11T21:56:27.351Z,46.49
2023-05-11T21:58:54.182Z,46.45
2023-05-11T22:01:21.053Z,46.32
2023-05-11T22:03:48.146Z,46.38
2023-05-11T22:06:15.408Z,46.28
2023-05-11T22:08:42.210Z,46.63
2023-05-11T22:11:09.843Z,46.97
2023-05-11T22:13:36.734Z,47.08
2023-05-11T22:16:03.885Z,47.09
2023-05-11T22:18:30.877Z,47.07
2023-05-11T22:20:57.710Z,47.20
2023-05-11T22:23:24.646Z,47.34
2023-05-11T22:25:51.468Z,47.32
2023-05-11T22:28:18.437Z,47.49
2023-05-11T22:30:45.623Z,47.78
2023-05-11T22:33:12.470Z,47.89
2023-05-11T22:35:40.071Z,48.09
2023-05-11T22:38:07.052Z,48.42
2023-05-11T22:40:33.889Z,48.50
2023-05-11T22:43:00.760Z,48.49
2023-05-11T22:45:27.558Z,48.38
2023-05-11T22:47:54.521Z,48.55
2023-05-11T22:50:21.888Z,48.49
2023-05-11T22:52:48.860Z,48.49
2023-05-11T22:55:15.777Z,48.59
2023-05-11T22:57:42.838Z,48.79
2023-05-11T23:00:11.029Z,49.07
2023-05-11T23:02:38.211Z,49.25
2023-05-11T23:05:05.683Z,49.39
2023-05-11T23:07:32.516Z,49.42
2023-05-11T23:09:59.351Z,49.53
2023-05-11T23:12:26.168Z,49.54
2023-05-11T23:14:53.465Z,49.70
2023-05-11T23:17:20.572Z,49.74
2023-05-11T23:19:48.175Z,49.68
2023-05-11T23:22:15.311Z,49.72
2023-05-11T23:24:42.152Z,49.95
2023-05-11T23:27:09.381Z,49.88
2023-05-11T23:29:36.226Z,49.96
2023-05-11T23:32:04.120Z,49.91
2023-05-11T23:34:31.093Z,49.99
2023-05-11T23:36:58.038Z,50.02
2023-05-11T23:39:24.970Z,50.07
2023-05-11T23:41:52.180Z,50.14
2023-05-11T23:44:19.051Z,50.17
2023-05-11T23:46:46.002Z,50.27
2023-05-11T23:49:12.869Z,50.20
2023-05-11T23:51:40.070Z,50.25
2023-05-11T23:54:07.054Z,50.23
2023-05-11T23:56:34.162Z,50.41
2023-05-11T23:59:01.053Z,50.43
